createdAt,value
2022-12-04T00:01:37.802Z,101738.45
2022-12-04T00:04:29.702Z,101732.83
2022-12-04T00:07:30.854Z,101729.63
2022-12-04T00:10:25.760Z,101732.05
2022-12-04T00:13:19.421Z,101724.40
2022-12-04T00:16:14.707Z,101724.44
2022-12-04T00:19:08.236Z,101722.20
2022-12-04T00:22:00.245Z,101718.65
2022-12-04T00:24:52.565Z,101714.30
2022-12-04T00:27:45.465Z,101708.23
2022-12-04T00:30:46.371Z,101705.23
2022-12-04T00:33:40.189Z,101702.08
2022-12-04T00:36:33.886Z,101697.95
2022-12-04T00:39:26.016Z,101696.16
2022-12-04T00:42:24.906Z,101695.41
2022-12-04T00:45:17.086Z,101692.75
2022-12-04T00:48:09.847Z,101692.38
2022-12-04T00:54:35.544Z,101700.85
2022-12-04T00:57:28.833Z,101699.45
2022-12-04T01:00:22.214Z,101697.23
2022-12-04T01:03:17.041Z,101695.75
2022-12-04T01:10:20.993Z,101691.34
2022-12-04T01:13:13.213Z,101685.39
2022-12-04T01:16:08.050Z,101682.39
2022-12-04T01:24:00.195Z,101679.00
2022-12-04T01:26:52.363Z,101679.41
2022-12-04T01:29:44.691Z,101675.39
2022-12-04T01:32:37.032Z,101673.29
2022-12-04T01:40:22.850Z,101676.33
2022-12-04T01:43:20.678Z,101673.05
2022-12-04T01:46:13.909Z,101668.70
2022-12-04T01:50:28.123Z,101668.94
2022-12-04T01:53:21.982Z,101665.80
2022-12-04T01:57:09.478Z,101666.15
2022-12-04T02:04:13.831Z,101669.80
2022-12-04T02:07:06.483Z,101669.42
2022-12-04T02:10:59.427Z,101668.20
2022-12-04T02:18:18.353Z,101665.68
2022-12-04T02:30:18.562Z,101667.83
2022-12-04T02:34:14.543Z,101667.20
2022-12-04T02:42:16.148Z,101664.52
2022-12-04T02:45:10.292Z,101665.77
2022-12-04T02:51:56.665Z,101665.03
2022-12-04T02:59:51.818Z,101660.41
2022-12-04T03:02:50.474Z,101657.00
2022-12-04T03:14:16.972Z,101655.69
2022-12-04T03:17:16.678Z,101657.21
2022-12-04T03:20:16.266Z,101653.69
2022-12-04T03:28:02.518Z,101651.67
2022-12-04T03:35:11.599Z,101650.73
2022-12-04T03:52:22.534Z,101643.14
2022-12-04T03:55:21.413Z,101643.07
2022-12-04T03:58:20.709Z,101643.92
2022-12-04T04:01:15.545Z,101646.52
2022-12-04T04:04:12.901Z,101645.94
2022-12-04T04:16:07.092Z,101648.52
2022-12-04T04:23:36.697Z,101645.13
2022-12-04T04:45:24.157Z,101648.81
2022-12-04T04:53:07.296Z,101646.96
2022-12-04T04:56:00.553Z,101650.17
2022-12-04T04:59:26.256Z,101651.88
2022-12-04T05:02:18.397Z,101653.29
2022-12-04T05:06:34.186Z,101648.77
2022-12-04T05:09:26.478Z,101651.64
2022-12-04T05:17:09.228Z,101646.25
2022-12-04T05:25:36.577Z,101645.83
2022-12-04T05:38:25.895Z,101653.42
2022-12-04T05:41:18.123Z,101653.67
2022-12-04T05:44:12.952Z,101655.14
2022-12-04T05:47:05.279Z,101662.19
2022-12-04T05:51:14.553Z,101659.56
2022-12-04T05:54:06.904Z,101665.32
2022-12-04T06:03:04.269Z,101672.96
2022-12-04T06:05:56.518Z,101673.24
2022-12-04T06:13:41.135Z,101676.68
2022-12-04T06:21:28.273Z,101674.94
2022-12-04T06:24:23.156Z,101681.05
2022-12-04T06:28:01.265Z,101683.48
2022-12-04T06:30:53.621Z,101680.64
2022-12-04T06:33:48.049Z,101677.42
2022-12-04T06:36:40.358Z,101675.23
2022-12-04T06:39:34.982Z,101671.48
2022-12-04T06:42:27.913Z,101666.70
2022-12-04T06:45:20.588Z,101666.17
2022-12-04T06:48:12.821Z,101669.93
2022-12-04T06:51:07.460Z,101677.63
2022-12-04T06:54:26.943Z,101687.59
2022-12-04T06:57:39.468Z,101689.67
2022-12-04T07:01:37.175Z,101689.57
2022-12-04T07:04:29.064Z,101682.94
2022-12-04T07:07:21.188Z,101677.90
2022-12-04T07:10:14.130Z,101685.17
2022-12-04T07:13:07.133Z,101691.95
2022-12-04T07:16:00.963Z,101693.02
2022-12-04T07:19:14.245Z,101689.77
2022-12-04T07:22:06.609Z,101693.35
2022-12-04T07:24:58.727Z,101698.05
2022-12-04T07:27:50.935Z,101701.55
2022-12-04T07:30:43.413Z,101702.88
2022-12-04T07:33:35.896Z,101703.33
2022-12-04T07:36:29.214Z,101704.45
2022-12-04T07:39:21.128Z,101704.70
2022-12-04T07:42:13.290Z,101700.98
2022-12-04T07:45:06.334Z,101700.52
2022-12-04T07:48:00.098Z,101701.00
2022-12-04T07:50:52.305Z,101707.38
2022-12-04T07:53:45.197Z,101708.79
2022-12-04T07:56:38.111Z,101707.80
2022-12-04T07:59:30.198Z,101714.77
2022-12-04T08:02:25.138Z,101715.73
2022-12-04T08:05:17.738Z,101724.95
2022-12-04T08:08:14.036Z,101735.81
2022-12-04T08:11:09.262Z,101749.90
2022-12-04T08:19:57.028Z,101740.85
2022-12-04T08:22:48.531Z,101737.52
2022-12-04T08:25:42.782Z,101726.97
2022-12-04T08:43:25.249Z,101708.58
2022-12-04T08:46:30.413Z,101707.77
2022-12-04T08:49:22.717Z,101714.80
2022-12-04T08:52:49.292Z,101715.45
2022-12-04T08:55:41.561Z,101714.17
2022-12-04T08:59:08.514Z,101720.15
2022-12-04T09:02:00.712Z,101723.17
2022-12-04T09:04:58.177Z,101724.63
2022-12-04T09:07:50.336Z,101722.69
2022-12-04T09:10:47.295Z,101727.98
2022-12-04T09:13:40.657Z,101730.52
2022-12-04T09:16:36.991Z,101735.03
2022-12-04T09:19:29.300Z,101740.19
2022-12-04T09:22:40.485Z,101749.11
2022-12-04T09:25:40.488Z,101755.46
2022-12-04T09:28:32.719Z,101747.43
2022-12-04T09:32:26.632Z,101744.73
2022-12-04T09:35:18.958Z,101744.95
2022-12-04T09:38:37.480Z,101740.69
2022-12-04T11:55:33.081Z,101701.11
2022-12-04T11:59:06.267Z,101695.06
2022-12-04T12:02:10.821Z,101700.27
2022-12-04T12:05:19.834Z,101695.64
2022-12-04T12:08:21.301Z,101692.20
2022-12-04T12:11:19.809Z,101689.89
2022-12-04T12:14:21.804Z,101690.02
2022-12-04T12:17:24.626Z,101692.46
2022-12-04T12:20:24.424Z,101703.45
2022-12-04T12:23:32.857Z,101705.23
2022-12-04T12:26:35.031Z,101702.65
2022-12-04T12:29:44.626Z,101702.09
2022-12-04T12:36:48.362Z,101700.52
2022-12-04T14:18:08.784Z,101652.98
2022-12-04T14:22:42.372Z,101652.39
2022-12-04T14:35:23.816Z,101661.59
2022-12-04T14:54:24.821Z,101665.40
2022-12-04T15:47:19.537Z,101692.15
2022-12-04T15:51:13.464Z,101685.45
2022-12-04T16:02:48.411Z,101695.23
2022-12-04T16:05:43.156Z,101696.93
2022-12-04T16:40:15.905Z,101715.30
2022-12-04T16:47:26.781Z,101731.55
2022-12-04T17:01:01.894Z,101736.09
2022-12-04T17:12:52.957Z,101743.33
2022-12-04T17:16:25.440Z,101744.09
2022-12-04T17:19:31.971Z,101746.41
2022-12-04T17:22:30.329Z,101747.27
2022-12-04T17:29:17.221Z,101757.21
2022-12-04T17:32:13.358Z,101765.91
2022-12-04T17:35:59.128Z,101771.05
2022-12-04T17:47:42.276Z,101776.87
2022-12-04T17:59:14.377Z,101794.27
2022-12-04T18:20:12.761Z,101800.24
2022-12-04T18:38:16.382Z,101805.66
2022-12-04T18:41:11.382Z,101804.53
2022-12-04T18:44:05.691Z,101803.14
2022-12-04T18:46:58.611Z,101802.23
2022-12-04T18:50:56.801Z,101805.96
2022-12-04T18:53:50.452Z,101810.02
2022-12-04T18:56:45.780Z,101822.80
2022-12-04T18:59:39.628Z,101820.54
2022-12-04T19:02:34.109Z,101816.48
2022-12-04T19:05:27.685Z,101811.36
2022-12-04T19:08:22.797Z,101817.77
2022-12-04T19:11:18.240Z,101818.85
2022-12-04T19:14:19.266Z,101822.45
2022-12-04T19:17:16.319Z,101836.19
2022-12-04T19:20:10.890Z,101833.33
2022-12-04T19:23:03.338Z,101830.69
2022-12-04T19:26:03.717Z,101828.92
2022-12-04T19:28:55.105Z,101838.00
2022-12-04T19:31:47.554Z,101833.41
2022-12-04T19:35:00.146Z,101841.59
2022-12-04T19:37:56.109Z,101856.53
2022-12-04T19:40:48.753Z,101868.80
2022-12-04T19:43:46.841Z,101872.17
2022-12-04T19:46:43.527Z,101865.45
2022-12-04T19:50:34.188Z,101855.00
2022-12-04T19:53:47.102Z,101854.64
2022-12-04T19:56:46.189Z,101852.90
2022-12-04T19:59:50.391Z,101852.19
2022-12-04T20:02:43.472Z,101858.74
2022-12-04T20:05:40.399Z,101869.00
2022-12-04T20:08:35.909Z,101872.20
2022-12-04T20:11:29.944Z,101881.46
2022-12-04T20:14:31.036Z,101888.70
2022-12-04T20:17:42.625Z,101891.59
2022-12-04T20:24:04.109Z,101890.33
2022-12-04T20:27:15.061Z,101893.34
2022-12-04T20:30:09.601Z,101896.53
2022-12-04T20:33:22.746Z,101897.69
2022-12-04T20:36:16.396Z,101907.25
2022-12-04T20:39:10.185Z,101910.80
2022-12-04T20:42:07.474Z,101913.70
2022-12-04T20:44:59.873Z,101916.01
2022-12-04T20:47:55.938Z,101921.08
2022-12-04T20:50:51.473Z,101924.11
2022-12-04T20:55:11.082Z,101931.05
2022-12-04T20:58:04.160Z,101925.56
2022-12-04T21:00:59.311Z,101925.95
2022-12-04T21:04:12.931Z,101930.23
2022-12-04T21:07:24.990Z,101931.31
2022-12-04T21:10:17.727Z,101934.11
2022-12-04T21:17:09.671Z,101946.91
2022-12-04T21:20:20.775Z,101942.13
2022-12-04T21:23:13.854Z,101940.69
2022-12-04T21:26:33.303Z,101941.49
2022-12-04T21:29:27.334Z,101949.98
2022-12-04T21:32:43.497Z,101956.52
2022-12-04T21:35:39.850Z,101957.57
2022-12-04T21:38:43.464Z,101963.38
2022-12-04T21:41:56.041Z,101961.65
2022-12-04T21:44:52.834Z,101963.96
2022-12-04T21:47:47.244Z,101962.90
2022-12-04T21:50:56.930Z,101962.32
2022-12-04T21:53:54.921Z,101964.08
2022-12-04T21:56:52.138Z,101965.71
2022-12-04T21:59:52.018Z,101964.01
2022-12-04T22:02:50.201Z,101963.16
2022-12-04T22:05:53.510Z,101964.73
2022-12-04T22:08:52.267Z,101968.62
2022-12-04T22:11:47.196Z,101968.58
2022-12-04T22:14:41.145Z,101970.27
2022-12-04T22:17:34.132Z,101965.32
2022-12-04T22:20:29.670Z,101959.21
2022-12-04T22:23:28.321Z,101964.64
2022-12-04T22:26:24.827Z,101963.52
2022-12-04T22:29:48.487Z,101964.66
2022-12-04T22:32:34.287Z,101964.08
2022-12-04T22:35:28.906Z,101968.13
2022-12-04T22:38:28.719Z,101973.59
2022-12-04T22:41:24.990Z,101974.51
2022-12-04T22:44:19.543Z,101973.64
2022-12-04T22:47:12.231Z,101968.23
2022-12-04T22:50:04.776Z,101966.27
2022-12-04T22:53:05.032Z,101960.17
2022-12-04T22:56:02.489Z,101953.86
2022-12-04T22:58:55.356Z,101954.84
2022-12-04T23:01:48.344Z,101946.36
2022-12-04T23:04:41.225Z,101946.11
2022-12-04T23:07:33.961Z,101938.77
2022-12-04T23:10:27.126Z,101954.61
2022-12-04T23:13:20.520Z,101976.78
2022-12-04T23:16:18.388Z,101986.98
2022-12-04T23:19:17.137Z,102000.94
2022-12-04T23:22:26.026Z,102009.52
2022-12-04T23:25:39.644Z,102013.48
2022-12-04T23:28:38.189Z,102010.42
2022-12-04T23:31:38.416Z,102012.54
2022-12-04T23:34:43.081Z,102015.17
2022-12-04T23:37:35.368Z,102017.85
2022-12-04T23:40:27.791Z,102016.79
2022-12-04T23:43:29.307Z,102009.55
2022-12-04T23:46:24.867Z,102013.17
2022-12-04T23:49:17.524Z,102018.23
2022-12-04T23:52:09.962Z,102015.04
2022-12-04T23:55:03.051Z,102016.85
2022-12-04T23:57:56.418Z,102019.30
